ENSB/LYR METAR and TAF weather

Enter ICAO airport designator
Station Type Date Time Source
ENSB METAR 2020/04/05 19:50 UTC NOAA

ENSB 051950Z 33006KT 280V020 9999 FEW020 M15/M19 Q1018 RMK WIND 1400FT 02004KT


Station Type Date Time Source
ENSB Decoded METAR 2020/04/05 19:50 UTC NOAA

Svalbard Lufthavn, Norway (ENSB) 78-15N 015-28E 29M
Apr 05, 2020 - 03:50 PM EDT / 2020.04.05 1950 UTC
Wind: from the NNW (330 degrees) at 7 MPH (6 KT) (direction variable):0
Visibility: greater than 7 mile(s):0
Sky conditions: mostly clear
Temperature: 5 F (-15 C)
Windchill: -7 F (-22 C):2
Dew Point: -2 F (-19 C)
Relative Humidity: 71%
Pressure (altimeter): 30.06 in. Hg (1018 hPa)
ob: ENSB 051950Z 33006KT 280V020 9999 FEW020 M15/M19 Q1018 RMK WIND 1400FT 02004KT
cycle: 20

Station Type Date Time Source
ENSB TAF 2020/04/05 18:57 UTC NOAA

TAF ENSB 051700Z 0518/0618 13005KT 9999 FEW020

Example: see airport list